Ipswich, Queensland

12:20 AM AEST on December 23, 2014 (GMT +1000)
North Lakes | Change Station
CLOSE
Current Station
Personal Weather Station
Location: North Lakes, QUEENSLAND
Elevation: 131 ft
Nearby Weather Stations

Elev 131 ft 27.22 °S, 153.00 °E | Updated 43 seconds ago

Partly Cloudy
Partly Cloudy
71.2 °F
Feels Like 74 °F
N
1.0
Wind Variable Wind from East
Gusts 1.0 mph

Today
High -- | Low -- °F
--% Chance of Precip.
Yesterday
High -- | Low -- °F
Precip. -- in
4:50 AM 6:42 PM
New Moon, 0% visible
Pressure 30.01 in
Visibility 6.2 miles
Clouds Few 3000 ft
Heat Index 74 °F
Dew Point 61 °F
Humidity 71%
Rainfall 0.00 in
Snow Depth Not available.
UV 0 out of 12
Pollen Not available.
Air Quality Not available.
Flu Activity Not available.
METAR YBBN 221400Z 09005KT 9999 FEW030 23/16 Q1016 NOSIG

More Conditions Fewer Conditions

Pressure 30.01 in
Visibility 6.2 miles
Clouds Few 3000 ft
Heat Index 74 °F
Dew Point 61 °F
Humidity 71%
Rainfall 0.00 in
Snow Depth Not available.
UV 0 out of 12
Pollen Not available.
Air Quality Not available.
Flu Activity Not available.
METAR YBBN 221400Z 09005KT 9999 FEW030 23/16 Q1016 NOSIG

More Conditions Fewer Conditions

10-Day Weather Forecast

Almanac

Astronomy

Dec. 23, 2014 Rise Set
Actual Time
Civil Twilight
Nautical Twilight
Astronomical Twilight
Moon
Length of Visible Light
Length of Day
Tomorrow will be .
, % of the Moon is Illuminated

Today's Extremes

Country Highs Country Lows

Community

WunderPhotos

Upload Photos

1,779,605 photos uploaded!

WunderBlogs® & News

Nearby

Air Quality

  Air Quality AQ Index Pollutant
Not available.

Snow Depth

Station Depth Elevation

Earthquake Activity

City Distance Mag. Time & Date
Minimum magnitude displayed is 2.5.

Coastal Water Temperatures

Place Temperature

Nearby Weather Stations